Time;durP1;ratioP1;P1;durP2;ratioP2;P2;SDS_P1;SDS_P2;PMS_P1;PMS_P2;Temp;Humidity;BMP_temperature;BMP_pressure;BME280_temperature;BME280_humidity;BME280_pressure;Samples;Min_cycle;Max_cycle;Signal;HPM_P1;HPM_P2
2022/07/26 00:08:10;;;;;;;3.22;1.52;;;;;;;19.35;95.56;100809.19;21045327;28;20040;-77
2022/07/26 00:18:13;;;;;;;3.45;1.27;;;;;;;19.48;95.43;100831.34;21044663;28;20130;-75
2022/07/26 00:28:14;;;;;;;2.75;1.10;;;;;;;19.48;95.78;100830.47;21043957;28;20056;-75
2022/07/26 00:38:16;;;;;;;2.45;1.10;;;;;;;19.48;95.82;100841.25;21042854;28;20040;-75
2022/07/26 00:48:17;;;;;;;3.05;0.95;;;;;;;19.24;95.91;100804.84;21043734;28;20044;-75
2022/07/26 00:58:19;;;;;;;2.42;1.00;;;;;;;19.17;96.03;100785.69;21027555;28;20078;-75
2022/07/26 01:08:21;;;;;;;2.75;1.13;;;;;;;19.46;96.21;100849.53;21043611;28;20064;-75
2022/07/26 01:18:22;;;;;;;2.45;1.10;;;;;;;19.46;96.29;100848.66;21042298;28;20082;-75
2022/07/26 01:28:24;;;;;;;2.67;1.17;;;;;;;19.45;96.48;100847.84;21056816;28;20043;-75
2022/07/26 01:38:26;;;;;;;1.98;1.00;;;;;;;19.45;96.50;100849.66;21051448;28;20056;-75
2022/07/26 01:48:27;;;;;;;2.20;1.25;;;;;;;19.45;96.77;100841.56;21043845;28;20068;-75
2022/07/26 01:58:30;;;;;;;3.20;1.02;;;;;;;19.44;96.90;100845.25;21048156;28;20048;-75
2022/07/26 02:08:32;;;;;;;2.13;0.93;;;;;;;19.44;96.84;100850.66;21055944;28;20044;-75
2022/07/26 02:18:34;;;;;;;3.17;1.20;;;;;;;19.17;96.93;100803.72;20991299;28;20040;-74
2022/07/26 02:28:35;;;;;;;2.63;1.40;;;;;;;19.39;97.07;100845.69;20947771;28;20125;-76
2022/07/26 02:38:37;;;;;;;1.90;0.93;;;;;;;19.35;97.35;100847.00;20905848;28;20057;-77
2022/07/26 02:48:38;;;;;;;2.53;1.10;;;;;;;19.41;97.38;100862.59;20907968;28;20116;-75
2022/07/26 02:58:41;;;;;;;3.30;1.10;;;;;;;19.41;97.42;100868.00;20927849;28;20052;-76
2022/07/26 03:08:43;;;;;;;1.65;0.90;;;;;;;19.39;97.70;100870.00;20925500;28;20049;-76
2022/07/26 03:18:44;;;;;;;1.48;1.00;;;;;;;19.40;97.94;100887.88;20965413;28;20102;-76
2022/07/26 03:28:46;;;;;;;2.13;1.00;;;;;;;19.38;98.14;100895.28;20965715;28;20091;-76
2022/07/26 03:38:48;;;;;;;4.10;1.30;;;;;;;19.40;98.04;100906.78;20966173;28;20042;-76
2022/07/26 03:48:49;;;;;;;3.08;1.20;;;;;;;19.18;98.39;100897.19;20981518;28;20500;-76
2022/07/26 03:58:51;;;;;;;2.50;1.10;;;;;;;19.39;98.30;100935.66;21047929;28;20060;-76
2022/07/26 04:08:53;;;;;;;1.98;0.90;;;;;;;19.39;98.59;100945.59;21045112;28;20131;-76
2022/07/26 04:18:55;;;;;;;2.28;1.10;;;;;;;19.37;98.73;100948.44;21045277;28;20567;-76
2022/07/26 04:28:56;;;;;;;2.47;1.20;;;;;;;19.38;98.93;100970.88;21043843;28;20136;-76
2022/07/26 04:38:58;;;;;;;1.98;0.80;;;;;;;19.38;98.88;100985.25;21045688;28;20446;-78
2022/07/26 04:48:59;;;;;;;1.63;0.93;;;;;;;19.37;99.08;100993.47;21034502;28;20385;-76
2022/07/26 04:59:01;;;;;;;1.70;0.90;;;;;;;19.25;98.81;100966.63;21039753;28;20052;-75
2022/07/26 05:09:03;;;;;;;0.77;0.55;;;;;;;19.37;99.03;101004.25;21020193;28;20048;-76
2022/07/26 05:19:05;;;;;;;1.70;0.90;;;;;;;19.23;99.12;101000.19;21036474;28;20052;-75
2022/07/26 05:29:07;;;;;;;2.25;0.93;;;;;;;19.37;99.13;101028.56;21042627;28;20101;-76
2022/07/26 05:39:08;;;;;;;1.80;0.88;;;;;;;19.37;99.06;101042.06;21042106;28;20400;-76
2022/07/26 05:49:16;;;;;;;1.17;0.68;;;;;;;19.21;98.96;101029.13;21024762;28;20132;-75
2022/07/26 05:59:17;;;;;;;3.58;1.40;;;;;;;19.37;99.04;101064.53;21041277;28;20097;-75
2022/07/26 06:09:19;;;;;;;1.98;0.75;;;;;;;19.37;98.70;101082.56;21044397;28;20062;-75
2022/07/26 06:19:21;;;;;;;1.77;0.90;;;;;;;19.37;98.83;101098.75;21053731;28;20074;-76
2022/07/26 06:29:23;;;;;;;0.95;0.70;;;;;;;19.35;98.54;101106.13;21055049;28;20056;-76
2022/07/26 06:39:33;;;;;;;1.48;0.82;;;;;;;19.37;98.25;101141.94;21053626;28;20045;-75
2022/07/26 06:49:34;;;;;;;1.10;0.60;;;;;;;19.38;98.07;101143.66;21027341;28;20505;-76
2022/07/26 06:59:36;;;;;;;1.83;0.77;;;;;;;19.28;97.95;101144.50;21033718;28;20147;-75
2022/07/26 07:09:38;;;;;;;1.35;0.68;;;;;;;19.34;97.75;101169.22;21051373;28;20523;-76
2022/07/26 07:19:39;;;;;;;1.10;0.60;;;;;;;19.38;97.70;101179.63;21022306;28;20049;-76
2022/07/26 07:29:41;;;;;;;1.75;0.82;;;;;;;19.39;97.72;101183.16;20944355;28;20044;-76
2022/07/26 07:39:43;;;;;;;1.08;0.60;;;;;;;19.39;97.82;101202.06;20968010;28;20044;-76
2022/07/26 07:49:50;;;;;;;0.88;0.50;;;;;;;19.39;97.75;101220.94;21039281;28;20048;-76
2022/07/26 07:59:52;;;;;;;0.65;0.40;;;;;;;19.38;97.69;101224.63;21047328;28;20055;-76
2022/07/26 08:09:54;;;;;;;1.00;0.50;;;;;;;19.37;97.32;101223.81;21044806;28;20040;-76
2022/07/26 08:19:55;;;;;;;0.65;0.50;;;;;;;19.39;97.01;101237.16;21046280;28;20052;-76
2022/07/26 08:30:01;;;;;;;0.60;0.40;;;;;;;19.38;96.82;101233.59;21045013;28;20052;-76
2022/07/26 08:40:04;;;;;;;0.88;0.60;;;;;;;19.25;96.45;101222.22;21022667;28;20086;-76
2022/07/26 08:50:06;;;;;;;0.98;0.43;;;;;;;19.42;96.14;101258.47;20876135;28;20383;-76
2022/07/26 09:00:18;;;;;;;1.73;0.52;;;;;;;19.43;95.80;101270.97;20846442;28;20049;-76
2022/07/26 09:10:21;;;;;;;1.20;0.40;;;;;;;19.37;95.56;101287.72;20863244;28;20051;-76
2022/07/26 09:20:25;;;;;;;1.45;0.32;;;;;;;19.42;95.08;101307.06;20867648;28;20060;-76
2022/07/26 09:30:30;;;;;;;0.73;0.40;;;;;;;19.42;94.81;101323.28;20894909;28;20049;-77
2022/07/26 09:40:34;;;;;;;1.10;0.40;;;;;;;19.38;94.65;101316.44;20880513;28;20123;-76
2022/07/26 09:50:36;;;;;;;1.40;0.55;;;;;;;19.41;94.10;101333.22;20905865;28;20126;-76
2022/07/26 10:00:38;;;;;;;1.83;0.60;;;;;;;19.42;93.86;101334.94;20901732;28;20443;-76
2022/07/26 10:11:09;;;;;;;1.10;0.45;;;;;;;19.42;93.59;101344.88;20904750;28;20049;-75
2022/07/26 10:21:14;;;;;;;1.80;0.60;;;;;;;19.40;93.30;101369.31;20911395;28;20045;-75
2022/07/26 10:31:18;;;;;;;1.13;0.40;;;;;;;19.40;93.02;101379.25;20909591;28;20525;-75
2022/07/26 10:41:30;;;;;;;1.83;0.50;;;;;;;19.33;92.77;101375.38;20926789;28;20382;-75
2022/07/26 10:51:34;;;;;;;1.23;0.50;;;;;;;19.40;92.56;101399.03;20929157;28;20056;-75
2022/07/26 11:01:41;;;;;;;1.35;0.55;;;;;;;19.41;92.14;101416.06;20884974;28;20137;-76
2022/07/26 11:11:44;;;;;;;2.83;0.50;;;;;;;19.36;92.63;101412.91;20893464;28;20036;-76
2022/07/26 11:21:58;;;;;;;2.50;0.50;;;;;;;19.41;92.88;101418.75;20893885;28;20113;-76
2022/07/26 11:32:00;;;;;;;1.95;0.47;;;;;;;19.44;93.09;101417.66;20884200;28;20127;-77
2022/07/26 11:42:18;;;;;;;3.47;0.60;;;;;;;19.43;92.93;101427.56;20875627;28;20111;-76
2022/07/26 11:52:20;;;;;;;2.58;0.70;;;;;;;19.45;93.08;101432.84;20885010;28;20057;-76
2022/07/26 12:02:27;;;;;;;3.67;0.70;;;;;;;19.45;92.69;101436.44;20891311;28;20080;-75
2022/07/26 12:12:31;;;;;;;1.60;0.43;;;;;;;19.45;92.67;101435.56;20901578;28;20496;-74
2022/07/26 12:22:33;;;;;;;2.47;0.70;;;;;;;19.21;92.45;101393.50;20907822;28;20110;-74
2022/07/26 12:32:36;;;;;;;2.30;0.60;;;;;;;19.46;92.15;101443.53;20905573;28;20127;-74
2022/07/26 12:42:43;;;;;;;1.42;0.50;;;;;;;19.48;91.62;101451.50;20902395;28;20080;-74
2022/07/26 12:52:45;;;;;;;3.20;0.60;;;;;;;19.40;91.28;101442.22;20907394;28;20048;-74
2022/07/26 13:02:47;;;;;;;3.80;0.60;;;;;;;19.48;90.99;101446.09;20911842;28;20052;-74
2022/07/26 13:12:48;;;;;;;2.10;0.88;;;;;;;19.39;90.59;101442.34;20917439;28;20044;-74
2022/07/26 13:22:50;;;;;;;3.05;0.60;;;;;;;19.48;90.40;101463.16;20911499;28;20041;-74
2022/07/26 13:32:52;;;;;;;2.08;0.70;;;;;;;19.49;89.94;101464.00;20921332;28;20048;-74
2022/07/26 13:42:53;;;;;;;2.08;0.65;;;;;;;19.50;89.54;101458.47;20917082;28;20102;-74
2022/07/26 13:52:55;;;;;;;1.13;0.47;;;;;;;19.33;89.28;101443.75;20934188;28;20493;-74
2022/07/26 14:02:58;;;;;;;1.13;0.50;;;;;;;19.51;89.20;101473.69;20947707;28;20063;-74
2022/07/26 14:13:00;;;;;;;1.48;0.50;;;;;;;19.50;88.64;101488.19;20948093;28;20558;-74
2022/07/26 14:23:01;;;;;;;2.13;0.60;;;;;;;19.49;88.65;101489.19;20949886;28;20052;-74
2022/07/26 14:33:04;;;;;;;1.00;0.57;;;;;;;19.52;88.30;101496.13;20944587;28;20045;-74
2022/07/26 14:43:06;;;;;;;2.08;0.73;;;;;;;19.53;88.27;101498.72;20945434;28;20049;-74
2022/07/26 14:53:10;;;;;;;1.15;0.40;;;;;;;19.53;87.94;101503.25;20934576;28;20048;-75
2022/07/26 15:03:12;;;;;;;2.30;0.57;;;;;;;19.40;87.65;101492.66;20911953;28;20045;-74
2022/07/26 15:13:14;;;;;;;1.70;0.90;;;;;;;19.52;87.43;101513.22;20923799;28;20049;-74
2022/07/26 15:23:15;;;;;;;1.88;0.55;;;;;;;19.52;87.21;101524.03;20918832;28;20041;-74
2022/07/26 15:33:19;;;;;;;2.25;0.50;;;;;;;19.53;86.92;101520.31;20930879;28;20055;-75
2022/07/26 15:43:22;;;;;;;2.15;0.65;;;;;;;19.54;86.47;101521.16;20932220;28;20501;-74
2022/07/26 15:53:44;;;;;;;1.55;0.80;;;;;;;19.52;86.47;101515.91;20921893;28;20044;-74
2022/07/26 16:03:47;;;;;;;1.25;0.40;;;;;;;19.52;85.90;101526.72;20920769;28;20409;-73
2022/07/26 16:13:48;;;;;;;2.03;0.75;;;;;;;19.52;86.71;101529.41;20887305;28;20081;-75
2022/07/26 16:23:50;;;;;;;1.50;0.40;;;;;;;19.53;85.58;101519.47;20883548;28;20146;-76
2022/07/26 16:33:52;;;;;;;1.95;0.40;;;;;;;19.53;85.58;101523.03;20897163;28;20647;-76
2022/07/26 16:43:54;;;;;;;1.40;0.60;;;;;;;19.52;85.10;101521.31;20873889;28;20049;-75
2022/07/26 16:53:56;;;;;;;1.67;0.60;;;;;;;19.53;85.42;101525.72;20883742;28;20102;-75
2022/07/26 17:03:57;;;;;;;2.28;0.60;;;;;;;19.53;84.75;101527.56;20889275;28;20138;-75
2022/07/26 17:13:59;;;;;;;1.73;0.80;;;;;;;19.35;85.06;101503.84;20891606;28;20512;-75
2022/07/26 17:24:00;;;;;;;0.90;0.60;;;;;;;19.52;84.95;101540.22;20877016;28;20072;-75
2022/07/26 17:34:06;;;;;;;2.92;1.10;;;;;;;19.51;85.33;101533.09;20873861;28;20044;-76
2022/07/26 17:44:08;;;;;;;0.80;0.43;;;;;;;19.51;84.94;101535.81;20874752;28;20055;-75
2022/07/26 17:54:09;;;;;;;1.67;0.65;;;;;;;19.49;85.32;101545.88;20868263;28;20162;-76
2022/07/26 18:04:13;;;;;;;1.60;0.80;;;;;;;19.44;85.17;101545.41;20902612;28;20462;-75
2022/07/26 18:14:14;;;;;;;1.25;0.68;;;;;;;18.87;86.36;101453.88;20914070;28;20048;-74
2022/07/26 18:24:16;;;;;;;3.25;0.70;;;;;;;19.33;85.59;101523.88;20910272;28;20056;-75
2022/07/26 18:34:18;;;;;;;1.65;0.90;;;;;;;19.49;85.54;101556.69;20915753;28;20056;-75
2022/07/26 18:44:20;;;;;;;0.75;0.50;;;;;;;19.47;85.38;101558.66;20931452;28;20056;-76
2022/07/26 18:54:22;;;;;;;2.80;0.73;;;;;;;19.45;84.98;101552.53;20968453;28;20055;-75
2022/07/26 19:04:23;;;;;;;1.98;0.68;;;;;;;19.42;84.59;101550.06;20968381;28;20048;-75
2022/07/26 19:14:26;;;;;;;1.25;0.50;;;;;;;19.23;84.05;101523.81;20965825;28;20052;-78
2022/07/26 19:24:27;;;;;;;1.77;0.70;;;;;;;19.39;83.61;101583.59;20976618;28;20051;-75
2022/07/26 19:34:29;;;;;;;1.38;0.60;;;;;;;19.26;83.40;101574.84;21037270;28;20040;-75
2022/07/26 19:44:31;;;;;;;1.15;0.60;;;;;;;19.40;82.92;101603.34;21037325;28;20047;-76
2022/07/26 19:54:32;;;;;;;1.73;0.65;;;;;;;19.28;82.72;101587.19;20958741;28;20062;-75
2022/07/26 20:04:34;;;;;;;0.60;0.40;;;;;;;19.37;82.63;101609.88;20963169;28;20036;-75
2022/07/26 20:14:36;;;;;;;0.57;0.40;;;;;;;19.32;82.42;101606.72;20909431;28;20045;-75
2022/07/26 20:24:37;;;;;;;3.88;0.57;;;;;;;19.36;82.33;101604.59;20942482;28;20055;-76
2022/07/26 20:34:39;;;;;;;1.50;0.47;;;;;;;19.35;82.10;101610.97;21044678;28;20040;-76
2022/07/26 20:44:40;;;;;;;0.93;0.47;;;;;;;19.34;82.24;101617.38;21044562;28;20044;-75
2022/07/26 20:54:42;;;;;;;1.13;0.57;;;;;;;19.34;82.16;101625.47;21043805;28;20044;-76
2022/07/26 21:04:44;;;;;;;1.13;0.30;;;;;;;19.23;82.30;101616.44;21041880;28;20168;-76
2022/07/26 21:14:46;;;;;;;0.73;0.32;;;;;;;19.33;82.39;101632.72;21042896;28;20097;-79
2022/07/26 21:24:48;;;;;;;0.30;0.30;;;;;;;19.31;82.40;101629.31;21033261;28;20540;-78
2022/07/26 21:34:49;;;;;;;1.45;0.50;;;;;;;19.22;82.36;101620.13;21042790;28;20037;-75
2022/07/26 21:44:51;;;;;;;0.55;0.40;;;;;;;19.14;82.56;101606.41;21057024;28;20043;-75
2022/07/26 21:54:53;;;;;;;0.80;0.30;;;;;;;19.24;82.71;101637.03;21057221;28;20048;-75
2022/07/26 22:04:54;;;;;;;1.00;0.45;;;;;;;19.25;82.70;101640.63;21056781;28;20044;-75
2022/07/26 22:14:56;;;;;;;0.88;0.52;;;;;;;19.28;82.75;101629.56;21054459;28;20040;-75
2022/07/26 22:24:57;;;;;;;0.55;0.30;;;;;;;19.26;82.58;101632.38;21040070;28;20048;-75
2022/07/26 22:34:59;;;;;;;0.75;0.43;;;;;;;19.24;82.72;101634.34;21054942;28;20043;-76
2022/07/26 22:45:00;;;;;;;0.65;0.50;;;;;;;18.74;82.53;101550.31;21052176;28;20052;-75
2022/07/26 22:55:12;;;;;;;1.20;0.55;;;;;;;19.25;82.56;101625.25;21052673;28;20055;-75
2022/07/26 23:05:13;;;;;;;1.65;0.40;;;;;;;19.22;82.49;101630.91;21035089;28;20051;-75
2022/07/26 23:15:15;;;;;;;0.90;0.30;;;;;;;19.25;82.40;101636.06;21051397;28;20059;-75
2022/07/26 23:25:17;;;;;;;0.85;0.45;;;;;;;19.25;82.62;101640.63;21028297;28;20075;-75
2022/07/26 23:35:20;;;;;;;0.47;0.40;;;;;;;19.11;82.16;101618.31;21049747;28;20056;-75
2022/07/26 23:45:22;;;;;;;0.32;0.30;;;;;;;19.19;82.28;101625.78;21048763;28;20048;-75
2022/07/26 23:55:23;;;;;;;0.77;0.30;;;;;;;18.88;82.44;101570.75;21048665;28;20109;-76
